createdAt,value
2018-08-16T00:01:28.595Z,68.90
2018-08-16T00:03:55.952Z,69.00
2018-08-16T00:06:23.289Z,69.00
2018-08-16T00:08:50.648Z,68.90
2018-08-16T00:11:17.949Z,68.90
2018-08-16T00:13:45.224Z,68.90
2018-08-16T00:16:12.543Z,69.20
2018-08-16T00:18:39.887Z,69.20
2018-08-16T00:21:07.250Z,69.20
2018-08-16T00:23:34.594Z,69.40
2018-08-16T00:26:01.922Z,69.20
2018-08-16T00:28:29.215Z,69.40
2018-08-16T00:30:56.530Z,69.40
2018-08-16T00:33:23.847Z,69.50
2018-08-16T00:35:51.161Z,69.40
2018-08-16T00:38:18.477Z,69.50
2018-08-16T00:40:45.763Z,69.40
2018-08-16T00:43:13.093Z,69.50
2018-08-16T00:45:40.451Z,69.50
2018-08-16T00:48:07.747Z,69.50
2018-08-16T00:50:35.076Z,69.70
2018-08-16T00:53:02.385Z,69.70
2018-08-16T00:55:29.668Z,69.60
2018-08-16T00:57:57.024Z,69.70
2018-08-16T01:00:24.328Z,69.90
2018-08-16T01:02:51.636Z,70.60
2018-08-16T01:05:18.964Z,70.00
2018-08-16T01:07:46.291Z,69.90
2018-08-16T01:10:14.182Z,70.10
2018-08-16T01:12:42.295Z,70.00
2018-08-16T01:15:11.242Z,70.10
2018-08-16T01:17:38.822Z,70.10
2018-08-16T01:20:06.584Z,70.10
2018-08-16T01:22:33.886Z,70.00
2018-08-16T01:25:01.226Z,70.00
2018-08-16T01:27:28.520Z,70.00
2018-08-16T01:29:55.828Z,69.90
2018-08-16T01:32:23.134Z,69.70
2018-08-16T01:34:50.438Z,69.70
2018-08-16T01:37:17.794Z,69.70
2018-08-16T01:39:45.134Z,69.60
2018-08-16T01:42:12.451Z,69.70
2018-08-16T01:44:39.785Z,69.70
2018-08-16T01:47:07.288Z,69.70
2018-08-16T01:49:35.855Z,69.90
2018-08-16T01:52:03.234Z,69.80
2018-08-16T01:54:30.779Z,70.00
2018-08-16T01:56:58.851Z,69.80
2018-08-16T01:59:26.191Z,69.90
2018-08-16T02:01:53.678Z,69.80
2018-08-16T02:04:21.005Z,69.80
2018-08-16T02:06:49.382Z,69.90
2018-08-16T02:09:16.839Z,70.00
2018-08-16T02:11:44.171Z,70.00
2018-08-16T02:14:11.491Z,70.10
2018-08-16T02:16:39.226Z,70.20
2018-08-16T02:19:06.584Z,70.10
2018-08-16T02:21:34.231Z,70.00
2018-08-16T02:24:02.121Z,70.10
2018-08-16T02:26:29.451Z,70.30
2018-08-16T02:28:56.790Z,70.10
2018-08-16T02:31:24.304Z,70.20
2018-08-16T02:33:51.849Z,70.30
2018-08-16T02:36:20.435Z,70.30
2018-08-16T02:38:47.868Z,70.30
2018-08-16T02:41:15.399Z,70.40
2018-08-16T02:43:42.723Z,70.50
2018-08-16T02:46:10.091Z,70.60
2018-08-16T02:48:37.616Z,70.60
2018-08-16T02:51:04.951Z,70.80
2018-08-16T02:53:32.431Z,70.60
2018-08-16T02:55:59.748Z,70.70
2018-08-16T02:58:27.071Z,70.80
2018-08-16T03:00:54.398Z,70.80
2018-08-16T03:03:21.731Z,70.80
2018-08-16T03:05:49.069Z,70.80
2018-08-16T03:08:16.368Z,70.80
2018-08-16T03:10:43.675Z,71.10
2018-08-16T03:13:17.846Z,71.20
2018-08-16T03:15:45.200Z,71.00
2018-08-16T03:18:12.569Z,71.10
2018-08-16T03:20:39.904Z,71.80
2018-08-16T03:23:07.519Z,70.90
2018-08-16T03:25:34.975Z,71.30
2018-08-16T03:28:02.541Z,71.20
2018-08-16T03:30:30.092Z,71.10
2018-08-16T03:32:57.442Z,71.10
2018-08-16T03:35:24.797Z,71.20
2018-08-16T03:37:52.204Z,71.20
2018-08-16T03:40:26.187Z,71.20
2018-08-16T03:42:53.527Z,71.60
2018-08-16T03:45:20.923Z,71.10
2018-08-16T03:47:48.237Z,71.00
2018-08-16T03:50:15.592Z,71.20
2018-08-16T03:52:43.031Z,71.20
2018-08-16T03:55:10.351Z,71.30
2018-08-16T03:57:37.663Z,71.40
2018-08-16T04:00:05.616Z,71.70
2018-08-16T04:02:32.960Z,71.60
2018-08-16T04:05:00.307Z,71.70
2018-08-16T04:07:27.679Z,71.70
2018-08-16T04:09:54.996Z,71.70
2018-08-16T04:12:22.368Z,71.90
2018-08-16T04:14:49.711Z,71.90
2018-08-16T04:17:17.095Z,72.10
2018-08-16T04:19:44.486Z,72.10
2018-08-16T04:22:11.875Z,72.10
2018-08-16T04:24:39.192Z,72.20
2018-08-16T04:27:06.538Z,72.20
2018-08-16T04:29:33.863Z,73.00
2018-08-16T04:32:01.337Z,72.00
2018-08-16T04:34:28.675Z,72.20
2018-08-16T04:36:56.106Z,72.10
2018-08-16T04:39:23.457Z,72.20
2018-08-16T04:41:50.844Z,72.30
2018-08-16T04:44:18.129Z,72.40
2018-08-16T04:46:45.676Z,72.40
2018-08-16T04:49:12.995Z,72.60
2018-08-16T04:51:40.352Z,72.70
2018-08-16T04:54:07.732Z,72.70
2018-08-16T04:56:35.067Z,72.80
2018-08-16T04:59:02.459Z,72.70
2018-08-16T05:01:29.789Z,73.00
2018-08-16T05:03:57.204Z,72.90
2018-08-16T05:06:24.503Z,72.90
2018-08-16T05:08:52.050Z,73.00
2018-08-16T05:11:19.388Z,72.90
2018-08-16T05:13:46.689Z,73.00
2018-08-16T05:16:14.035Z,73.00
2018-08-16T05:18:41.396Z,73.20
2018-08-16T05:21:08.717Z,73.20
2018-08-16T05:23:36.025Z,73.20
2018-08-16T05:26:03.585Z,73.30
2018-08-16T05:28:30.896Z,73.60
2018-08-16T05:30:58.273Z,73.70
2018-08-16T05:33:25.631Z,73.90
2018-08-16T05:35:52.995Z,74.00
2018-08-16T05:38:20.356Z,74.10
2018-08-16T05:40:47.708Z,74.30
2018-08-16T05:43:15.188Z,74.20
2018-08-16T05:45:42.504Z,74.00
2018-08-16T05:48:09.858Z,73.80
2018-08-16T05:50:37.246Z,73.70
2018-08-16T05:53:04.696Z,73.70
2018-08-16T05:55:32.043Z,73.80
2018-08-16T05:57:59.401Z,73.90
2018-08-16T06:00:26.790Z,73.70
2018-08-16T06:02:54.156Z,73.70
2018-08-16T06:05:21.635Z,73.40
2018-08-16T06:07:49.001Z,73.30
2018-08-16T06:10:16.392Z,73.50
2018-08-16T06:12:43.779Z,73.90
2018-08-16T06:15:11.131Z,74.20
2018-08-16T06:17:38.519Z,74.30
2018-08-16T06:20:08.428Z,74.10
2018-08-16T06:22:35.817Z,74.10
2018-08-16T06:25:03.869Z,73.80
2018-08-16T06:27:31.212Z,73.70
2018-08-16T06:29:58.643Z,73.50
2018-08-16T06:32:26.099Z,73.20
2018-08-16T06:34:53.429Z,73.10
2018-08-16T06:37:20.779Z,72.90
2018-08-16T06:39:48.140Z,72.60
2018-08-16T06:42:15.585Z,72.20
2018-08-16T06:44:42.912Z,71.90
2018-08-16T06:47:14.567Z,71.80
2018-08-16T06:49:41.956Z,71.80
2018-08-16T06:52:09.303Z,71.90
2018-08-16T06:54:36.677Z,72.10
2018-08-16T06:57:04.039Z,72.40
2018-08-16T06:59:31.387Z,72.50
2018-08-16T07:01:58.760Z,72.30
2018-08-16T07:04:26.074Z,71.90
2018-08-16T07:06:53.488Z,71.50
2018-08-16T07:09:20.814Z,70.90
2018-08-16T07:11:48.197Z,70.10
2018-08-16T07:14:15.586Z,70.00
2018-08-16T07:16:42.971Z,70.30
2018-08-16T07:19:10.369Z,70.20
2018-08-16T07:21:37.844Z,70.40
2018-08-16T07:24:05.347Z,70.10
2018-08-16T07:26:32.675Z,69.80
2018-08-16T07:29:00.028Z,68.80
2018-08-16T07:31:27.388Z,68.60
2018-08-16T07:33:54.718Z,68.40
2018-08-16T07:36:22.133Z,67.50
2018-08-16T07:38:49.485Z,67.20
2018-08-16T07:41:16.948Z,66.80
2018-08-16T07:43:44.323Z,66.70
2018-08-16T07:46:12.088Z,66.10
2018-08-16T07:48:39.352Z,66.10
2018-08-16T07:51:06.804Z,66.20
2018-08-16T07:53:34.132Z,66.60
2018-08-16T07:56:01.633Z,65.50
2018-08-16T07:58:29.047Z,65.20
2018-08-16T08:00:56.418Z,64.20
2018-08-16T08:03:23.774Z,64.60
2018-08-16T08:05:51.211Z,64.80
2018-08-16T08:08:18.620Z,65.00
2018-08-16T08:10:45.976Z,64.10
2018-08-16T08:13:13.352Z,63.40
2018-08-16T08:15:40.723Z,63.30
2018-08-16T08:18:08.139Z,63.10
2018-08-16T08:20:35.558Z,63.10
2018-08-16T08:23:02.925Z,63.60
2018-08-16T08:25:30.303Z,63.10
2018-08-16T08:27:57.664Z,62.80
2018-08-16T08:30:25.011Z,62.20
2018-08-16T08:32:52.440Z,62.10
2018-08-16T08:35:19.848Z,61.90
2018-08-16T08:38:00.274Z,61.60
2018-08-16T08:40:27.627Z,61.10
2018-08-16T08:42:54.978Z,60.40
2018-08-16T08:45:22.308Z,60.40
2018-08-16T08:47:54.228Z,60.00
2018-08-16T08:50:21.837Z,59.60
2018-08-16T08:52:49.173Z,59.40
2018-08-16T08:55:28.551Z,59.20
2018-08-16T08:58:07.398Z,59.20
2018-08-16T09:00:34.991Z,58.70
2018-08-16T09:03:02.342Z,59.20
2018-08-16T09:05:29.675Z,59.00
2018-08-16T09:07:57.024Z,58.50
2018-08-16T09:11:03.635Z,57.80
2018-08-16T09:13:42.773Z,57.60
2018-08-16T09:16:16.386Z,57.00
2018-08-16T09:18:43.720Z,56.90
2018-08-16T09:21:11.663Z,56.80
2018-08-16T09:23:39.067Z,55.60
2018-08-16T09:26:12.169Z,55.90
2018-08-16T09:28:39.903Z,55.50
2018-08-16T09:31:19.221Z,55.00
2018-08-16T09:33:58.281Z,54.80
2018-08-16T09:36:25.822Z,54.50
2018-08-16T09:38:53.579Z,54.80
2018-08-16T09:41:20.934Z,55.20
2018-08-16T09:43:48.280Z,55.30
2018-08-16T09:46:58.578Z,55.10
2018-08-16T09:49:26.294Z,54.50
2018-08-16T09:51:53.897Z,54.50
2018-08-16T09:54:21.438Z,54.40
2018-08-16T09:56:49.091Z,54.20
2018-08-16T09:59:16.788Z,54.00
2018-08-16T10:01:44.324Z,54.30
2018-08-16T10:04:11.687Z,53.90
2018-08-16T10:06:40.151Z,53.90
2018-08-16T10:09:13.031Z,53.40
2018-08-16T10:11:40.427Z,53.60
2018-08-16T10:14:07.813Z,53.70
2018-08-16T10:16:35.607Z,53.50
2018-08-16T10:19:03.384Z,54.00
2018-08-16T10:21:30.667Z,53.70
2018-08-16T10:23:58.093Z,53.60
2018-08-16T10:26:25.643Z,54.30
2018-08-16T10:28:52.996Z,54.30
2018-08-16T10:31:20.353Z,54.50
2018-08-16T10:33:47.672Z,53.50
2018-08-16T10:36:15.048Z,53.40
2018-08-16T10:38:42.415Z,53.30
2018-08-16T10:41:09.724Z,53.20
2018-08-16T10:43:37.088Z,53.80
2018-08-16T10:46:04.625Z,53.20
2018-08-16T10:48:32.251Z,52.50
2018-08-16T10:50:59.948Z,52.60
2018-08-16T10:53:27.584Z,52.60
2018-08-16T10:55:54.948Z,52.70
2018-08-16T10:58:22.304Z,52.30
2018-08-16T11:00:49.645Z,52.10
2018-08-16T11:03:17.137Z,51.60
2018-08-16T11:05:44.472Z,50.80
2018-08-16T11:08:11.811Z,51.20
2018-08-16T11:10:39.168Z,51.10
2018-08-16T11:13:06.515Z,51.10
2018-08-16T11:15:33.861Z,51.60
2018-08-16T11:18:01.187Z,51.10
2018-08-16T11:20:28.535Z,51.70
2018-08-16T11:22:55.939Z,51.60
2018-08-16T11:25:23.294Z,51.70
2018-08-16T11:27:50.622Z,51.50
2018-08-16T11:30:18.107Z,50.50
2018-08-16T11:32:45.408Z,51.10
2018-08-16T11:35:12.831Z,50.80
2018-08-16T11:37:40.162Z,50.60
2018-08-16T11:40:07.943Z,50.10
2018-08-16T11:42:35.292Z,50.40
2018-08-16T11:45:02.702Z,50.10
2018-08-16T11:47:30.002Z,49.90
2018-08-16T11:49:57.297Z,50.00
2018-08-16T11:52:24.559Z,49.90
2018-08-16T11:54:51.922Z,50.20
2018-08-16T11:57:19.307Z,49.70
2018-08-16T11:59:46.649Z,50.00
2018-08-16T12:02:14.030Z,49.60
2018-08-16T12:04:41.379Z,49.20
2018-08-16T12:07:08.715Z,49.50
2018-08-16T12:09:36.283Z,49.40
2018-08-16T12:12:03.758Z,49.10
2018-08-16T12:14:31.060Z,49.30
2018-08-16T12:16:58.386Z,49.20
2018-08-16T12:19:25.706Z,49.40
2018-08-16T12:21:53.058Z,49.40
2018-08-16T12:24:20.365Z,49.40
2018-08-16T12:26:47.695Z,49.10
2018-08-16T12:29:15.046Z,49.00
2018-08-16T12:31:42.376Z,48.30
2018-08-16T12:34:09.704Z,48.30
2018-08-16T12:36:37.036Z,48.00
2018-08-16T12:39:05.395Z,48.00
2018-08-16T12:41:32.706Z,47.10
2018-08-16T12:44:00.008Z,47.40
2018-08-16T12:46:29.359Z,47.60
2018-08-16T12:48:56.675Z,47.20
2018-08-16T12:51:23.978Z,46.40
2018-08-16T12:53:51.527Z,47.90
2018-08-16T12:56:18.883Z,47.60
2018-08-16T12:58:46.218Z,47.10
2018-08-16T13:01:13.577Z,47.10
2018-08-16T13:03:40.939Z,46.80
2018-08-16T13:06:08.271Z,46.90
2018-08-16T13:08:35.628Z,46.70
2018-08-16T13:11:02.967Z,46.70
2018-08-16T13:13:30.319Z,46.60
2018-08-16T13:15:57.649Z,47.00
2018-08-16T13:18:24.973Z,46.90
2018-08-16T13:20:52.337Z,47.20
2018-08-16T13:23:19.868Z,46.40
2018-08-16T13:25:47.254Z,46.40
2018-08-16T13:28:14.796Z,46.50
2018-08-16T13:30:42.088Z,46.80
2018-08-16T13:33:09.810Z,47.10
2018-08-16T13:35:37.147Z,46.70
2018-08-16T13:38:04.932Z,47.10
2018-08-16T13:40:32.284Z,47.30
2018-08-16T13:42:59.626Z,47.00
2018-08-16T13:45:26.935Z,47.10
2018-08-16T13:47:54.274Z,46.70
2018-08-16T13:50:21.601Z,46.80
2018-08-16T13:52:48.931Z,46.80
2018-08-16T13:55:16.305Z,47.10
2018-08-16T13:57:43.691Z,46.70
2018-08-16T14:00:11.068Z,46.20
2018-08-16T14:02:38.781Z,46.20
2018-08-16T14:05:06.327Z,45.90
2018-08-16T14:07:33.627Z,45.70
2018-08-16T14:10:00.979Z,45.50
2018-08-16T14:12:28.295Z,45.60
2018-08-16T14:14:55.753Z,45.60
2018-08-16T14:17:23.051Z,45.80
2018-08-16T14:19:50.398Z,45.80
2018-08-16T14:22:17.812Z,45.20
2018-08-16T14:24:45.116Z,45.50
2018-08-16T14:27:12.423Z,45.60
2018-08-16T14:29:39.798Z,45.60
2018-08-16T14:32:07.146Z,45.40
2018-08-16T14:34:34.411Z,45.40
2018-08-16T14:37:02.163Z,45.30
2018-08-16T14:39:29.475Z,44.80
2018-08-16T14:41:56.831Z,45.10
2018-08-16T14:44:24.182Z,45.10
2018-08-16T14:46:51.514Z,44.40
2018-08-16T14:49:18.825Z,44.00
2018-08-16T14:51:46.191Z,44.30
2018-08-16T14:54:13.505Z,44.80
2018-08-16T14:56:40.890Z,44.60
2018-08-16T14:59:08.257Z,45.10
2018-08-16T15:01:35.540Z,45.30
2018-08-16T15:04:02.850Z,45.30
2018-08-16T15:06:30.220Z,45.30
2018-08-16T15:11:24.895Z,44.30
2018-08-16T15:13:52.231Z,44.60
2018-08-16T15:16:19.825Z,44.30
2018-08-16T15:18:47.669Z,44.30
2018-08-16T15:21:15.020Z,44.30
2018-08-16T15:23:48.028Z,43.70
2018-08-16T15:26:24.018Z,43.60
2018-08-16T15:28:58.465Z,43.20
2018-08-16T15:31:35.631Z,43.80
2018-08-16T15:34:17.140Z,44.20
2018-08-16T15:36:52.260Z,44.90
2018-08-16T15:39:19.775Z,44.50
2018-08-16T15:41:47.107Z,44.80
2018-08-16T15:44:14.470Z,45.20
2018-08-16T15:46:41.795Z,45.10
2018-08-16T15:49:09.155Z,44.70
2018-08-16T15:51:36.431Z,43.80
2018-08-16T15:54:04.423Z,44.20
2018-08-16T15:56:31.762Z,44.40
2018-08-16T15:58:59.159Z,43.90
2018-08-16T16:01:26.496Z,44.00
2018-08-16T16:03:53.872Z,44.40
2018-08-16T16:06:21.389Z,44.40
2018-08-16T16:08:48.661Z,44.30
2018-08-16T16:11:16.077Z,44.40
2018-08-16T16:13:43.467Z,44.00
2018-08-16T16:16:10.803Z,43.40
2018-08-16T16:18:38.156Z,43.40
2018-08-16T16:21:05.633Z,42.90
2018-08-16T16:23:33.007Z,43.60
2018-08-16T16:26:00.637Z,43.20
2018-08-16T16:28:28.027Z,43.30
2018-08-16T16:30:55.519Z,43.50
2018-08-16T16:33:22.840Z,44.10
2018-08-16T16:35:50.217Z,44.00
2018-08-16T16:38:18.007Z,44.10
2018-08-16T16:40:45.402Z,44.00
2018-08-16T16:43:12.854Z,44.20
2018-08-16T16:45:40.292Z,44.70
2018-08-16T16:48:07.661Z,44.20
2018-08-16T16:50:34.985Z,44.50
2018-08-16T16:53:02.521Z,44.50
2018-08-16T16:55:29.781Z,43.40
2018-08-16T16:57:58.197Z,44.10
2018-08-16T17:00:25.545Z,44.80
2018-08-16T17:02:52.919Z,45.00
2018-08-16T17:05:20.348Z,45.40
2018-08-16T17:07:47.695Z,45.40
2018-08-16T17:10:15.183Z,45.50
2018-08-16T17:12:43.137Z,45.50
2018-08-16T17:15:10.558Z,45.20
2018-08-16T17:17:38.824Z,44.70
2018-08-16T17:20:06.737Z,44.40
2018-08-16T17:22:34.407Z,44.90
2018-08-16T17:25:01.777Z,45.10
2018-08-16T17:27:29.289Z,44.90
2018-08-16T17:29:56.619Z,45.00
2018-08-16T17:32:23.935Z,45.20
2018-08-16T17:34:51.287Z,45.20
2018-08-16T17:37:18.659Z,45.40
2018-08-16T17:39:45.992Z,45.60
2018-08-16T17:42:13.327Z,46.10
2018-08-16T17:44:41.299Z,46.00
2018-08-16T17:47:08.805Z,46.30
2018-08-16T17:49:36.115Z,46.60
2018-08-16T17:52:03.756Z,46.80
2018-08-16T17:54:31.031Z,47.10
2018-08-16T17:56:58.554Z,47.40
2018-08-16T17:59:25.946Z,47.40
2018-08-16T18:01:53.354Z,47.50
2018-08-16T18:04:20.817Z,47.60
2018-08-16T18:06:48.315Z,47.70
2018-08-16T18:09:15.672Z,47.80
2018-08-16T18:11:43.076Z,48.00
2018-08-16T18:14:10.581Z,47.90
2018-08-16T18:16:38.006Z,48.10
2018-08-16T18:19:05.501Z,48.20
2018-08-16T18:21:32.915Z,48.30
2018-08-16T18:24:00.325Z,48.40
2018-08-16T18:26:27.969Z,48.40
2018-08-16T18:28:55.548Z,48.50
2018-08-16T18:31:22.962Z,48.50
2018-08-16T18:33:50.303Z,48.70
2018-08-16T18:36:17.671Z,48.80
2018-08-16T18:38:45.036Z,49.00
2018-08-16T18:41:12.457Z,49.00
2018-08-16T18:43:39.853Z,48.90
2018-08-16T18:46:07.197Z,49.10
2018-08-16T18:48:34.524Z,49.40
2018-08-16T18:51:01.872Z,49.60
2018-08-16T18:53:29.267Z,49.00
2018-08-16T18:55:56.567Z,49.80
2018-08-16T18:58:24.149Z,50.00
2018-08-16T19:00:51.443Z,50.20
2018-08-16T19:03:18.857Z,50.30
2018-08-16T19:05:46.306Z,50.60
2018-08-16T19:08:13.601Z,50.60
2018-08-16T19:10:41.003Z,50.90
2018-08-16T19:13:08.434Z,51.10
2018-08-16T19:15:35.771Z,51.20
2018-08-16T19:18:03.216Z,51.50
2018-08-16T19:20:30.595Z,51.40
2018-08-16T19:22:58.006Z,51.70
2018-08-16T19:25:25.367Z,51.70
2018-08-16T19:27:52.960Z,52.10
2018-08-16T19:30:20.306Z,52.30
2018-08-16T19:32:47.715Z,52.40
2018-08-16T19:35:15.090Z,52.50
2018-08-16T19:37:42.518Z,52.70
2018-08-16T19:40:09.899Z,53.10
2018-08-16T19:42:37.226Z,53.60
2018-08-16T19:45:04.768Z,53.50
2018-08-16T19:47:35.383Z,53.80
2018-08-16T19:50:21.410Z,53.90
2018-08-16T19:52:55.930Z,54.00
2018-08-16T19:55:24.236Z,54.00
2018-08-16T19:57:54.543Z,54.10
2018-08-16T20:00:42.197Z,54.10
2018-08-16T20:03:09.557Z,54.30
2018-08-16T20:05:37.101Z,54.30
2018-08-16T20:08:04.726Z,54.80
2018-08-16T20:10:32.307Z,55.10
2018-08-16T20:12:59.651Z,55.10
2018-08-16T20:15:27.165Z,55.50
2018-08-16T20:17:54.556Z,55.80
2018-08-16T20:20:21.971Z,56.00
2018-08-16T20:25:23.439Z,56.90
2018-08-16T20:27:50.778Z,57.10
2018-08-16T20:30:18.210Z,57.40
2018-08-16T20:32:45.526Z,57.90
2018-08-16T20:35:13.073Z,58.70
2018-08-16T20:37:40.859Z,58.80
2018-08-16T20:40:08.232Z,58.80
2018-08-16T20:42:35.551Z,58.70
2018-08-16T20:45:03.120Z,59.30
2018-08-16T20:47:30.481Z,59.00
2018-08-16T20:49:57.828Z,59.80
2018-08-16T20:52:25.172Z,59.80
2018-08-16T20:54:52.509Z,60.40
2018-08-16T20:57:20.017Z,59.90
2018-08-16T20:59:47.437Z,59.90
2018-08-16T21:02:14.872Z,59.90
2018-08-16T21:04:42.343Z,59.90
2018-08-16T21:07:09.719Z,59.90
2018-08-16T21:09:37.031Z,60.00
2018-08-16T21:12:04.360Z,60.70
2018-08-16T21:14:31.667Z,60.60
2018-08-16T21:16:58.999Z,60.70
2018-08-16T21:19:26.799Z,60.50
2018-08-16T21:21:54.161Z,60.50
2018-08-16T21:24:21.475Z,60.80
2018-08-16T21:26:48.842Z,60.80
2018-08-16T21:29:16.170Z,61.00
2018-08-16T21:31:43.533Z,61.10
2018-08-16T21:34:10.853Z,61.10
2018-08-16T21:36:38.268Z,61.00
2018-08-16T21:39:07.897Z,61.10
2018-08-16T21:41:35.228Z,61.00
2018-08-16T21:44:02.564Z,60.90
2018-08-16T21:46:29.871Z,60.90
2018-08-16T21:48:57.292Z,61.00
2018-08-16T21:51:24.851Z,60.90
2018-08-16T21:53:52.163Z,60.80
2018-08-16T21:56:19.644Z,61.00
2018-08-16T21:58:47.072Z,61.00
2018-08-16T22:01:14.512Z,61.10
2018-08-16T22:03:41.888Z,61.20
2018-08-16T22:06:10.319Z,61.40
2018-08-16T22:08:41.602Z,61.30
2018-08-16T22:11:08.993Z,61.40
2018-08-16T22:13:36.568Z,61.40
2018-08-16T22:16:04.134Z,61.80
2018-08-16T22:18:31.493Z,62.40
2018-08-16T22:20:58.800Z,62.50
2018-08-16T22:23:26.149Z,63.00
2018-08-16T22:25:53.517Z,63.10
2018-08-16T22:28:20.851Z,63.40
2018-08-16T22:30:48.167Z,64.20
2018-08-16T22:33:15.499Z,64.00
2018-08-16T22:35:42.966Z,63.90
2018-08-16T22:38:10.304Z,64.40
2018-08-16T22:40:37.660Z,64.60
2018-08-16T22:43:05.186Z,64.40
2018-08-16T22:45:32.518Z,64.50
2018-08-16T22:47:59.918Z,65.50
2018-08-16T22:50:27.211Z,65.30
2018-08-16T22:52:54.523Z,65.40
2018-08-16T22:55:21.842Z,65.60
2018-08-16T22:57:49.217Z,66.10
2018-08-16T23:00:16.563Z,65.80
2018-08-16T23:02:44.024Z,65.70
2018-08-16T23:05:11.419Z,66.00
2018-08-16T23:07:38.731Z,66.10
2018-08-16T23:10:06.236Z,66.20
2018-08-16T23:12:33.533Z,66.30
2018-08-16T23:15:00.947Z,66.70
2018-08-16T23:17:28.248Z,67.00
2018-08-16T23:19:55.549Z,67.20
2018-08-16T23:22:22.873Z,67.50
2018-08-16T23:24:50.202Z,67.70
2018-08-16T23:27:17.623Z,67.70
2018-08-16T23:29:44.934Z,67.70
2018-08-16T23:32:12.232Z,67.90
2018-08-16T23:34:39.592Z,67.80
2018-08-16T23:37:07.214Z,68.00
2018-08-16T23:39:34.583Z,67.80
2018-08-16T23:42:01.958Z,67.50
2018-08-16T23:44:29.268Z,67.70
2018-08-16T23:46:56.624Z,67.60
2018-08-16T23:49:23.957Z,67.50
2018-08-16T23:51:51.283Z,67.40
2018-08-16T23:54:18.587Z,67.60
2018-08-16T23:56:45.956Z,67.40
2018-08-16T23:59:13.288Z,67.30
